Terminal Aerodrome Forecast
Issued by NWS

Current Version | Previous Version | Text Only | Print | Product List | Glossary Off
Versions: 1 2 3 4 5 6 7 8 9 10 11 12 13 14 15 16 17 18 19 20 21 22 23 24 25 26 27 28 29 30

000
FTUS41 KILN 211100
TAFLCK
TAF
KLCK 211134Z 2112/2212 23010KT P6SM OVC020
     FM211600 26014G23KT P6SM SCT035
     FM211900 29017G27KT P6SM SCT040
     FM212100 29017G27KT P6SM BKN040
     FM220100 30012KT P6SM OVC020=

USA.gov is the U.S. government's official web portal to all federal, state and local government web resources and services.